PWSweather.com
Personal Weather Stations
Station Observations
KCAOCEAN4
Jeffries Ranch, Oceanside, CA 92057

Jeffries RanchOceanside, CA 92057

Lat: 33.2463208, Lon: -117.25335080000002

Elevation: 207

Station Type: Davis Vantage Vue

jeffriesranchweather.com

High Low Average
Temperature 59.7°F15.4°C 56.7°F13.7°C 57.9°F14.4°C
Dew Point 57.4°F14.1°C 54.7°F12.6°C 55.9°F13.3°C
Winds 4.9 mph 7.9 kmh Calm Calm 1.0 mph SW1.6 kmh SW
Wind Gusts 12.1 mph19.5 kmh -- 3.0 mph4.8 kmh
Humidity 97% 89% 93%
Pressure 29.98 in1015.2 mb 29.89 in1012.2 mb -
Precipitation 0.60 in15.2 mm - -
Hour Temp Dew Point Humidity Winds Wind Gusts Pressure Precip Precip Rate Daily Precip Total
12:04 AM 57.4°F14.1°C 55.0°F12.8°C 92% Calm Calm 2.0 mph3.2 kmh 29.94 in1013.9 mb 0.00 in0.0 mm 0.00 in0.0 mm 0.00 in0.0 mm
12:14 AM 57.4°F14.1°C 55.0°F12.8°C 92% Calm Calm 0.9 mph1.4 kmh 29.94 in1013.9 mb 0.00 in0.0 mm 0.00 in0.0 mm 0.00 in0.0 mm
12:24 AM 57.4°F14.1°C 55.0°F12.8°C 92% 0.9 mph SW1.4 kmh SW 2.0 mph3.2 kmh 29.94 in1013.9 mb 0.00 in0.0 mm 0.00 in0.0 mm 0.00 in0.0 mm
12:34 AM 57.4°F14.1°C 55.0°F12.8°C 92% 0.9 mph WSW1.4 kmh WSW 2.0 mph3.2 kmh 29.93 in1013.5 mb 0.00 in0.0 mm 0.00 in0.0 mm 0.00 in0.0 mm
12:44 AM 57.4°F14.1°C 55.0°F12.8°C 92% Calm Calm 0.9 mph1.4 kmh 29.94 in1013.9 mb 0.00 in0.0 mm 0.00 in0.0 mm 0.00 in0.0 mm
12:54 AM 57.6°F14.2°C 55.2°F12.9°C 92% Calm Calm 2.0 mph3.2 kmh 29.93 in1013.5 mb 0.00 in0.0 mm 0.00 in0.0 mm 0.00 in0.0 mm
01:04 AM 57.6°F14.2°C 55.2°F12.9°C 92% Calm Calm 2.0 mph3.2 kmh 29.93 in1013.5 mb 0.00 in0.0 mm 0.00 in0.0 mm 0.00 in0.0 mm
01:14 AM 57.6°F14.2°C 55.2°F12.9°C 92% Calm Calm -- 29.93 in1013.5 mb 0.00 in0.0 mm 0.00 in0.0 mm 0.00 in0.0 mm
01:24 AM 57.6°F14.2°C 55.2°F12.9°C 92% Calm Calm 1.0 mph1.6 kmh 29.93 in1013.5 mb 0.00 in0.0 mm 0.00 in0.0 mm 0.00 in0.0 mm
01:34 AM 57.7°F14.3°C 55.4°F13.0°C 92% Calm Calm 0.9 mph1.4 kmh 29.93 in1013.5 mb 0.00 in0.0 mm 0.00 in0.0 mm 0.00 in0.0 mm
01:44 AM 57.7°F14.3°C 55.2°F12.9°C 91% Calm Calm 1.0 mph1.6 kmh 29.93 in1013.5 mb 0.00 in0.0 mm 0.00 in0.0 mm 0.00 in0.0 mm
01:54 AM 57.7°F14.3°C 55.4°F13.0°C 92% Calm Calm -- 29.94 in1013.9 mb 0.00 in0.0 mm 0.00 in0.0 mm 0.00 in0.0 mm
02:04 AM 57.7°F14.3°C 55.2°F12.9°C 91% Calm Calm -- 29.94 in1013.9 mb 0.00 in0.0 mm 0.00 in0.0 mm 0.00 in0.0 mm
02:14 AM 57.7°F14.3°C 55.2°F12.9°C 91% Calm Calm -- 29.94 in1013.9 mb 0.00 in0.0 mm 0.00 in0.0 mm 0.00 in0.0 mm
02:24 AM 57.7°F14.3°C 55.2°F12.9°C 91% Calm Calm 2.0 mph3.2 kmh 29.94 in1013.9 mb 0.00 in0.0 mm 0.00 in0.0 mm 0.00 in0.0 mm
02:34 AM 57.7°F14.3°C 55.2°F12.9°C 91% 0.9 mph SW1.4 kmh SW 3.0 mph4.8 kmh 29.93 in1013.5 mb 0.00 in0.0 mm 0.00 in0.0 mm 0.00 in0.0 mm
02:44 AM 57.7°F14.3°C 55.2°F12.9°C 91% Calm Calm 0.9 mph1.4 kmh 29.93 in1013.5 mb 0.00 in0.0 mm 0.00 in0.0 mm 0.00 in0.0 mm
02:54 AM 57.7°F14.3°C 55.2°F12.9°C 91% Calm Calm -- 29.93 in1013.5 mb 0.00 in0.0 mm 0.00 in0.0 mm 0.00 in0.0 mm
03:04 AM 57.7°F14.3°C 55.2°F12.9°C 91% Calm Calm 0.9 mph1.4 kmh 29.92 in1013.2 mb 0.00 in0.0 mm 0.00 in0.0 mm 0.00 in0.0 mm
03:14 AM 57.7°F14.3°C 55.2°F12.9°C 91% Calm Calm 2.0 mph3.2 kmh 29.92 in1013.2 mb 0.00 in0.0 mm 0.00 in0.0 mm 0.00 in0.0 mm
03:24 AM 57.6°F14.2°C 55.0°F12.8°C 91% 0.9 mph NW1.4 kmh NW 2.9 mph4.7 kmh 29.92 in1013.2 mb 0.00 in0.0 mm 0.00 in0.0 mm 0.00 in0.0 mm
03:34 AM 57.6°F14.2°C 55.0°F12.8°C 91% 0.9 mph NW1.4 kmh NW 2.9 mph4.7 kmh 29.92 in1013.2 mb 0.00 in0.0 mm 0.00 in0.0 mm 0.00 in0.0 mm
03:44 AM 57.6°F14.2°C 55.0°F12.8°C 91% 0.9 mph NNW1.4 kmh NNW 2.9 mph4.7 kmh 29.91 in1012.9 mb 0.00 in0.0 mm 0.00 in0.0 mm 0.00 in0.0 mm
03:54 AM 57.6°F14.2°C 55.2°F12.9°C 92% Calm Calm 2.0 mph3.2 kmh 29.91 in1012.9 mb 0.00 in0.0 mm 0.00 in0.0 mm 0.00 in0.0 mm
04:04 AM 57.4°F14.1°C 55.0°F12.8°C 92% Calm Calm -- 29.91 in1012.9 mb 0.00 in0.0 mm 0.00 in0.0 mm 0.00 in0.0 mm
04:14 AM 57.4°F14.1°C 55.0°F12.8°C 92% Calm Calm -- 29.91 in1012.9 mb 0.00 in0.0 mm 0.00 in0.0 mm 0.00 in0.0 mm
04:24 AM 57.4°F14.1°C 55.0°F12.8°C 92% Calm Calm 1.0 mph1.6 kmh 29.91 in1012.9 mb 0.00 in0.0 mm 0.00 in0.0 mm 0.00 in0.0 mm
04:34 AM 57.2°F14.0°C 54.9°F12.7°C 92% Calm Calm 0.9 mph1.4 kmh 29.90 in1012.5 mb 0.00 in0.0 mm 0.00 in0.0 mm 0.00 in0.0 mm
04:44 AM 57.2°F14.0°C 54.9°F12.7°C 92% Calm Calm 1.0 mph1.6 kmh 29.91 in1012.9 mb 0.00 in0.0 mm 0.00 in0.0 mm 0.00 in0.0 mm
04:54 AM 57.2°F14.0°C 54.9°F12.7°C 92% Calm Calm 0.9 mph1.4 kmh 29.90 in1012.5 mb 0.00 in0.0 mm 0.00 in0.0 mm 0.00 in0.0 mm
05:04 AM 57.0°F13.9°C 54.7°F12.6°C 92% 0.9 mph W1.4 kmh W 2.0 mph3.2 kmh 29.90 in1012.5 mb 0.00 in0.0 mm 0.00 in0.0 mm 0.00 in0.0 mm
05:14 AM 57.0°F13.9°C 54.7°F12.6°C 92% Calm Calm 2.0 mph3.2 kmh 29.89 in1012.2 mb 0.00 in0.0 mm 0.00 in0.0 mm 0.00 in0.0 mm
05:24 AM 57.0°F13.9°C 54.7°F12.6°C 92% Calm Calm -- 29.89 in1012.2 mb 0.00 in0.0 mm 0.00 in0.0 mm 0.00 in0.0 mm
05:34 AM 57.0°F13.9°C 54.7°F12.6°C 92% 0.9 mph WNW1.4 kmh WNW 2.0 mph3.2 kmh 29.90 in1012.5 mb 0.00 in0.0 mm 0.00 in0.0 mm 0.00 in0.0 mm
05:44 AM 57.0°F13.9°C 54.7°F12.6°C 92% 0.9 mph WNW1.4 kmh WNW 3.0 mph4.8 kmh 29.90 in1012.5 mb 0.00 in0.0 mm 0.00 in0.0 mm 0.00 in0.0 mm
05:54 AM 57.0°F13.9°C 54.7°F12.6°C 92% 0.9 mph WSW1.4 kmh WSW 2.9 mph4.7 kmh 29.90 in1012.5 mb 0.00 in0.0 mm 0.00 in0.0 mm 0.00 in0.0 mm
06:04 AM 57.2°F14.0°C 54.9°F12.7°C 92% 0.9 mph WSW1.4 kmh WSW 2.0 mph3.2 kmh 29.89 in1012.2 mb 0.00 in0.0 mm 0.00 in0.0 mm 0.00 in0.0 mm
06:14 AM 57.0°F13.9°C 54.7°F12.6°C 92% 0.9 mph WSW1.4 kmh WSW 2.9 mph4.7 kmh 29.90 in1012.5 mb 0.00 in0.0 mm 0.00 in0.0 mm 0.00 in0.0 mm
06:24 AM 57.0°F13.9°C 55.0°F12.8°C 93% 2.0 mph W3.2 kmh W 2.9 mph4.7 kmh 29.90 in1012.5 mb 0.00 in0.0 mm 0.00 in0.0 mm 0.00 in0.0 mm
06:34 AM 57.0°F13.9°C 55.0°F12.8°C 93% 0.9 mph WNW1.4 kmh WNW 2.9 mph4.7 kmh 29.90 in1012.5 mb 0.00 in0.0 mm 0.00 in0.0 mm 0.00 in0.0 mm
06:44 AM 57.0°F13.9°C 55.0°F12.8°C 93% 0.9 mph W1.4 kmh W 2.9 mph4.7 kmh 29.91 in1012.9 mb 0.00 in0.0 mm 0.00 in0.0 mm 0.00 in0.0 mm
06:54 AM 57.0°F13.9°C 55.0°F12.8°C 93% Calm Calm 2.0 mph3.2 kmh 29.91 in1012.9 mb 0.00 in0.0 mm 0.00 in0.0 mm 0.00 in0.0 mm
07:04 AM 57.0°F13.9°C 55.0°F12.8°C 93% Calm Calm 0.9 mph1.4 kmh 29.91 in1012.9 mb 0.00 in0.0 mm 0.00 in0.0 mm 0.00 in0.0 mm
07:14 AM 57.0°F13.9°C 55.0°F12.8°C 93% Calm Calm -- 29.91 in1012.9 mb 0.00 in0.0 mm 0.00 in0.0 mm 0.00 in0.0 mm
07:24 AM 56.8°F13.8°C 54.9°F12.7°C 93% Calm Calm 0.9 mph1.4 kmh 29.91 in1012.9 mb 0.00 in0.0 mm 0.00 in0.0 mm 0.00 in0.0 mm
07:35 AM 56.8°F13.8°C 54.9°F12.7°C 93% Calm Calm 0.9 mph1.4 kmh 29.91 in1012.9 mb 0.00 in0.0 mm 0.00 in0.0 mm 0.00 in0.0 mm
07:45 AM 56.8°F13.8°C 54.9°F12.7°C 93% Calm Calm 0.9 mph1.4 kmh 29.91 in1012.9 mb 0.00 in0.0 mm 0.00 in0.0 mm 0.00 in0.0 mm
07:55 AM 57.0°F13.9°C 55.0°F12.8°C 93% Calm Calm 0.9 mph1.4 kmh 29.91 in1012.9 mb 0.00 in0.0 mm 0.00 in0.0 mm 0.00 in0.0 mm
08:05 AM 57.0°F13.9°C 55.2°F12.9°C 94% Calm Calm -- 29.92 in1013.2 mb 0.00 in0.0 mm 0.00 in0.0 mm 0.00 in0.0 mm
08:15 AM 57.2°F14.0°C 55.4°F13.0°C 94% Calm Calm -- 29.93 in1013.5 mb 0.00 in0.0 mm 0.00 in0.0 mm 0.00 in0.0 mm
08:25 AM 57.2°F14.0°C 55.4°F13.0°C 94% Calm Calm -- 29.93 in1013.5 mb 0.00 in0.0 mm 0.00 in0.0 mm 0.00 in0.0 mm
08:35 AM 57.4°F14.1°C 55.6°F13.1°C 94% Calm Calm -- 29.94 in1013.9 mb 0.00 in0.0 mm 0.00 in0.0 mm 0.00 in0.0 mm
08:45 AM 57.4°F14.1°C 55.6°F13.1°C 94% Calm Calm -- 29.94 in1013.9 mb 0.00 in0.0 mm 0.00 in0.0 mm 0.00 in0.0 mm
08:55 AM 57.4°F14.1°C 55.6°F13.1°C 94% Calm Calm -- 29.95 in1014.2 mb 0.00 in0.0 mm 0.00 in0.0 mm 0.00 in0.0 mm
09:05 AM 57.6°F14.2°C 55.8°F13.2°C 94% Calm Calm -- 29.95 in1014.2 mb 0.00 in0.0 mm 0.00 in0.0 mm 0.00 in0.0 mm
09:15 AM 57.6°F14.2°C 55.8°F13.2°C 94% Calm Calm -- 29.95 in1014.2 mb 0.00 in0.0 mm 0.00 in0.0 mm 0.00 in0.0 mm
09:25 AM 57.6°F14.2°C 55.8°F13.2°C 94% Calm Calm -- 29.96 in1014.6 mb 0.00 in0.0 mm 0.00 in0.0 mm 0.00 in0.0 mm
09:35 AM 57.7°F14.3°C 55.9°F13.3°C 94% Calm Calm -- 29.96 in1014.6 mb 0.00 in0.0 mm 0.00 in0.0 mm 0.00 in0.0 mm
09:45 AM 57.9°F14.4°C 56.1°F13.4°C 94% Calm Calm -- 29.96 in1014.6 mb 0.00 in0.0 mm 0.00 in0.0 mm 0.00 in0.0 mm
09:55 AM 58.3°F14.6°C 56.5°F13.6°C 94% Calm Calm 3.0 mph4.8 kmh 29.97 in1014.9 mb 0.00 in0.0 mm 0.00 in0.0 mm 0.00 in0.0 mm
10:05 AM 58.3°F14.6°C 56.5°F13.6°C 94% 0.9 mph W1.4 kmh W 2.0 mph3.2 kmh 29.97 in1014.9 mb 0.00 in0.0 mm 0.00 in0.0 mm 0.00 in0.0 mm
10:15 AM 58.3°F14.6°C 56.5°F13.6°C 94% 0.9 mph S1.4 kmh S 2.0 mph3.2 kmh 29.96 in1014.6 mb 0.00 in0.0 mm 0.00 in0.0 mm 0.00 in0.0 mm
10:25 AM 58.3°F14.6°C 56.5°F13.6°C 94% 0.9 mph WSW1.4 kmh WSW 3.0 mph4.8 kmh 29.96 in1014.6 mb 0.01 in0.3 mm 0.06 in1.5 mm 0.01 in0.3 mm
10:35 AM 58.6°F14.8°C 56.8°F13.8°C 94% 0.9 mph W1.4 kmh W 2.9 mph4.7 kmh 29.96 in1014.6 mb 0.01 in0.3 mm 0.00 in0.0 mm 0.01 in0.3 mm
10:45 AM 58.8°F14.9°C 56.8°F13.8°C 93% 0.9 mph SW1.4 kmh SW 2.9 mph4.7 kmh 29.96 in1014.6 mb 0.01 in0.3 mm 0.00 in0.0 mm 0.01 in0.3 mm
10:55 AM 59.0°F15.0°C 57.0°F13.9°C 93% 0.9 mph WNW1.4 kmh WNW 4.0 mph6.4 kmh 29.96 in1014.6 mb 0.01 in0.3 mm 0.00 in0.0 mm 0.01 in0.3 mm
11:05 AM 59.0°F15.0°C 56.7°F13.7°C 92% 0.9 mph SE1.4 kmh SE 4.0 mph6.4 kmh 29.96 in1014.6 mb 0.01 in0.3 mm 0.00 in0.0 mm 0.01 in0.3 mm
11:15 AM 59.4°F15.2°C 57.0°F13.9°C 92% 0.9 mph SW1.4 kmh SW 4.0 mph6.4 kmh 29.96 in1014.6 mb 0.01 in0.3 mm 0.00 in0.0 mm 0.01 in0.3 mm
11:25 AM 59.4°F15.2°C 56.7°F13.7°C 91% 0.9 mph SE1.4 kmh SE 4.0 mph6.4 kmh 29.96 in1014.6 mb 0.00 in0.0 mm 0.00 in0.0 mm 0.01 in0.3 mm
11:35 AM 59.5°F15.3°C 56.7°F13.7°C 90% 0.9 mph SE1.4 kmh SE 2.9 mph4.7 kmh 29.95 in1014.2 mb 0.00 in0.0 mm 0.00 in0.0 mm 0.01 in0.3 mm
11:45 AM 59.7°F15.4°C 56.8°F13.8°C 90% 0.9 mph SSE1.4 kmh SSE 2.9 mph4.7 kmh 29.96 in1014.6 mb 0.00 in0.0 mm 0.00 in0.0 mm 0.01 in0.3 mm
11:55 AM 59.7°F15.4°C 56.5°F13.6°C 89% 0.9 mph WSW1.4 kmh WSW 4.0 mph6.4 kmh 29.96 in1014.6 mb 0.00 in0.0 mm 0.00 in0.0 mm 0.01 in0.3 mm
12:05 PM 59.7°F15.4°C 56.8°F13.8°C 90% 2.0 mph WSW3.2 kmh WSW 4.0 mph6.4 kmh 29.96 in1014.6 mb 0.00 in0.0 mm 0.00 in0.0 mm 0.01 in0.3 mm
12:15 PM 59.4°F15.2°C 57.0°F13.9°C 92% 2.0 mph W3.2 kmh W 4.0 mph6.4 kmh 29.96 in1014.6 mb 0.00 in0.0 mm 0.00 in0.0 mm 0.02 in0.5 mm
12:25 PM 59.2°F15.1°C 57.2°F14.0°C 93% 2.9 mph W4.7 kmh W 4.9 mph7.9 kmh 29.96 in1014.6 mb 0.01 in0.3 mm 0.06 in1.5 mm 0.02 in0.5 mm
12:35 PM 59.0°F15.0°C 57.0°F13.9°C 93% 2.9 mph W4.7 kmh W 4.9 mph7.9 kmh 29.96 in1014.6 mb 0.01 in0.3 mm 0.00 in0.0 mm 0.02 in0.5 mm
12:45 PM 59.0°F15.0°C 57.0°F13.9°C 93% 2.9 mph WSW4.7 kmh WSW 4.9 mph7.9 kmh 29.96 in1014.6 mb 0.02 in0.5 mm 0.06 in1.5 mm 0.03 in0.8 mm
12:55 PM 58.8°F14.9°C 56.8°F13.8°C 93% 2.9 mph W4.7 kmh W 4.9 mph7.9 kmh 29.94 in1013.9 mb 0.02 in0.5 mm 0.00 in0.0 mm 0.03 in0.8 mm
01:05 PM 59.2°F15.1°C 57.2°F14.0°C 93% 2.0 mph W3.2 kmh W 5.0 mph8.0 kmh 29.95 in1014.2 mb 0.02 in0.5 mm 0.00 in0.0 mm 0.03 in0.8 mm
01:15 PM 59.2°F15.1°C 57.4°F14.1°C 94% 2.9 mph W4.7 kmh W 6.0 mph9.7 kmh 29.95 in1014.2 mb 0.02 in0.5 mm 0.00 in0.0 mm 0.03 in0.8 mm
01:25 PM 59.2°F15.1°C 57.4°F14.1°C 94% 2.9 mph W4.7 kmh W 6.0 mph9.7 kmh 29.95 in1014.2 mb 0.01 in0.3 mm 0.00 in0.0 mm 0.03 in0.8 mm
01:35 PM 59.0°F15.0°C 57.0°F13.9°C 93% 4.0 mph WNW6.4 kmh WNW 6.9 mph11.1 kmh 29.95 in1014.2 mb 0.01 in0.3 mm 0.00 in0.0 mm 0.03 in0.8 mm
01:45 PM 58.8°F14.9°C 56.8°F13.8°C 93% 2.9 mph N4.7 kmh N 6.0 mph9.7 kmh 29.95 in1014.2 mb 0.00 in0.0 mm 0.00 in0.0 mm 0.03 in0.8 mm
01:55 PM 58.3°F14.6°C 56.5°F13.6°C 94% 2.9 mph W4.7 kmh W 8.1 mph13.0 kmh 29.95 in1014.2 mb 0.00 in0.0 mm 0.00 in0.0 mm 0.03 in0.8 mm
02:05 PM 58.3°F14.6°C 56.5°F13.6°C 94% 2.0 mph NW3.2 kmh NW 4.9 mph7.9 kmh 29.95 in1014.2 mb 0.00 in0.0 mm 0.00 in0.0 mm 0.03 in0.8 mm
02:15 PM 57.9°F14.4°C 55.9°F13.3°C 93% 2.9 mph WSW4.7 kmh WSW 6.9 mph11.1 kmh 29.95 in1014.2 mb 0.00 in0.0 mm 0.00 in0.0 mm 0.03 in0.8 mm
02:25 PM 57.7°F14.3°C 55.8°F13.2°C 93% 2.9 mph W4.7 kmh W 6.0 mph9.7 kmh 29.94 in1013.9 mb 0.00 in0.0 mm 0.00 in0.0 mm 0.03 in0.8 mm
02:35 PM 57.9°F14.4°C 55.9°F13.3°C 93% 2.0 mph WSW3.2 kmh WSW 6.0 mph9.7 kmh 29.93 in1013.5 mb 0.00 in0.0 mm 0.00 in0.0 mm 0.03 in0.8 mm
02:45 PM 58.3°F14.6°C 55.9°F13.3°C 92% 2.0 mph WSW3.2 kmh WSW 5.0 mph8.0 kmh 29.93 in1013.5 mb 0.00 in0.0 mm 0.00 in0.0 mm 0.03 in0.8 mm
02:55 PM 58.3°F14.6°C 55.9°F13.3°C 92% 2.0 mph WSW3.2 kmh WSW 4.9 mph7.9 kmh 29.94 in1013.9 mb 0.00 in0.0 mm 0.00 in0.0 mm 0.03 in0.8 mm
03:05 PM 58.5°F14.7°C 55.8°F13.2°C 91% 0.9 mph SE1.4 kmh SE 4.0 mph6.4 kmh 29.94 in1013.9 mb 0.00 in0.0 mm 0.00 in0.0 mm 0.03 in0.8 mm
03:15 PM 58.3°F14.6°C 55.6°F13.1°C 91% 2.0 mph WSW3.2 kmh WSW 4.9 mph7.9 kmh 29.94 in1013.9 mb 0.00 in0.0 mm 0.00 in0.0 mm 0.03 in0.8 mm
03:25 PM 58.3°F14.6°C 55.6°F13.1°C 91% 2.0 mph SE3.2 kmh SE 4.0 mph6.4 kmh 29.93 in1013.5 mb 0.00 in0.0 mm 0.00 in0.0 mm 0.03 in0.8 mm
03:35 PM 58.3°F14.6°C 55.6°F13.1°C 91% 0.9 mph SSW1.4 kmh SSW 4.0 mph6.4 kmh 29.94 in1013.9 mb 0.00 in0.0 mm 0.00 in0.0 mm 0.03 in0.8 mm
03:45 PM 58.6°F14.8°C 55.9°F13.3°C 91% 0.9 mph SSE1.4 kmh SSE 2.9 mph4.7 kmh 29.93 in1013.5 mb 0.00 in0.0 mm 0.00 in0.0 mm 0.03 in0.8 mm
03:55 PM 58.6°F14.8°C 55.9°F13.3°C 91% 0.9 mph SSE1.4 kmh SSE 2.9 mph4.7 kmh 29.93 in1013.5 mb 0.00 in0.0 mm 0.00 in0.0 mm 0.03 in0.8 mm
04:05 PM 58.8°F14.9°C 55.9°F13.3°C 90% 0.9 mph SE1.4 kmh SE 4.0 mph6.4 kmh 29.93 in1013.5 mb 0.00 in0.0 mm 0.00 in0.0 mm 0.03 in0.8 mm
04:15 PM 58.8°F14.9°C 55.9°F13.3°C 90% 0.9 mph SW1.4 kmh SW 6.0 mph9.7 kmh 29.93 in1013.5 mb 0.00 in0.0 mm 0.00 in0.0 mm 0.03 in0.8 mm
04:25 PM 58.8°F14.9°C 55.9°F13.3°C 90% 2.0 mph SE3.2 kmh SE 4.9 mph7.9 kmh 29.93 in1013.5 mb 0.00 in0.0 mm 0.00 in0.0 mm 0.03 in0.8 mm
04:35 PM 58.8°F14.9°C 55.9°F13.3°C 90% 2.0 mph SE3.2 kmh SE 8.1 mph13.0 kmh 29.93 in1013.5 mb 0.00 in0.0 mm 0.00 in0.0 mm 0.03 in0.8 mm
04:45 PM 58.8°F14.9°C 55.9°F13.3°C 90% 2.0 mph SW3.2 kmh SW 6.0 mph9.7 kmh 29.93 in1013.5 mb 0.00 in0.0 mm 0.00 in0.0 mm 0.03 in0.8 mm
04:55 PM 58.5°F14.7°C 55.8°F13.2°C 91% 2.9 mph SE4.7 kmh SE 7.0 mph11.3 kmh 29.93 in1013.5 mb 0.00 in0.0 mm 0.00 in0.0 mm 0.03 in0.8 mm
05:05 PM 58.3°F14.6°C 55.9°F13.3°C 92% 2.0 mph SE3.2 kmh SE 4.9 mph7.9 kmh 29.93 in1013.5 mb 0.01 in0.3 mm 0.01 in0.3 mm 0.04 in1.0 mm
05:15 PM 58.5°F14.7°C 56.5°F13.6°C 93% 0.9 mph SW1.4 kmh SW 4.0 mph6.4 kmh 29.94 in1013.9 mb 0.01 in0.3 mm 0.00 in0.0 mm 0.04 in1.0 mm
05:25 PM 58.3°F14.6°C 56.3°F13.5°C 93% Calm Calm 2.0 mph3.2 kmh 29.93 in1013.5 mb 0.02 in0.5 mm 0.06 in1.5 mm 0.05 in1.3 mm
05:35 PM 58.3°F14.6°C 56.5°F13.6°C 94% Calm Calm 2.0 mph3.2 kmh 29.93 in1013.5 mb 0.03 in0.8 mm 0.06 in1.5 mm 0.06 in1.5 mm
05:45 PM 58.3°F14.6°C 56.5°F13.6°C 94% 0.9 mph SSE1.4 kmh SSE 4.0 mph6.4 kmh 29.93 in1013.5 mb 0.03 in0.8 mm 0.00 in0.0 mm 0.06 in1.5 mm
05:55 PM 58.3°F14.6°C 56.5°F13.6°C 94% Calm Calm 2.9 mph4.7 kmh 29.93 in1013.5 mb 0.04 in1.0 mm 0.06 in1.5 mm 0.07 in1.8 mm
06:05 PM 58.1°F14.5°C 56.3°F13.5°C 94% Calm Calm 1.0 mph1.6 kmh 29.93 in1013.5 mb 0.04 in1.0 mm 0.00 in0.0 mm 0.08 in2.0 mm
06:15 PM 57.9°F14.4°C 56.1°F13.4°C 94% Calm Calm 2.9 mph4.7 kmh 29.93 in1013.5 mb 0.06 in1.5 mm 0.12 in3.0 mm 0.10 in2.5 mm
06:25 PM 57.9°F14.4°C 56.5°F13.6°C 95% 0.9 mph SW1.4 kmh SW 2.9 mph4.7 kmh 29.93 in1013.5 mb 0.07 in1.8 mm 0.06 in1.5 mm 0.12 in3.0 mm
06:35 PM 57.9°F14.4°C 56.5°F13.6°C 95% Calm Calm 2.0 mph3.2 kmh 29.93 in1013.5 mb 0.07 in1.8 mm 0.00 in0.0 mm 0.14 in3.6 mm
06:45 PM 57.9°F14.4°C 56.5°F13.6°C 95% 0.9 mph WSW1.4 kmh WSW 2.0 mph3.2 kmh 29.93 in1013.5 mb 0.08 in2.0 mm 0.06 in1.5 mm 0.14 in3.6 mm
06:55 PM 57.7°F14.3°C 56.3°F13.5°C 95% Calm Calm 2.9 mph4.7 kmh 29.93 in1013.5 mb 0.08 in2.0 mm 0.00 in0.0 mm 0.15 in3.8 mm
07:05 PM 57.7°F14.3°C 56.3°F13.5°C 95% 2.0 mph SW3.2 kmh SW 4.9 mph7.9 kmh 29.93 in1013.5 mb 0.09 in2.3 mm 0.01 in0.3 mm 0.17 in4.3 mm
07:15 PM 57.7°F14.3°C 56.3°F13.5°C 95% Calm Calm 2.9 mph4.7 kmh 29.93 in1013.5 mb 0.10 in2.5 mm 0.06 in1.5 mm 0.20 in5.1 mm
07:25 PM 57.7°F14.3°C 56.3°F13.5°C 95% Calm Calm 2.0 mph3.2 kmh 29.93 in1013.5 mb 0.10 in2.5 mm 0.00 in0.0 mm 0.22 in5.6 mm
07:35 PM 57.7°F14.3°C 56.3°F13.5°C 95% Calm Calm -- 29.94 in1013.9 mb 0.10 in2.5 mm 0.00 in0.0 mm 0.23 in5.8 mm
07:45 PM 57.7°F14.3°C 56.3°F13.5°C 95% Calm Calm -- 29.94 in1013.9 mb 0.10 in2.5 mm 0.00 in0.0 mm 0.24 in6.1 mm
07:55 PM 57.7°F14.3°C 56.7°F13.7°C 96% Calm Calm -- 29.94 in1013.9 mb 0.11 in2.8 mm 0.06 in1.5 mm 0.26 in6.6 mm
08:05 PM 57.9°F14.4°C 56.8°F13.8°C 96% Calm Calm -- 29.94 in1013.9 mb 0.10 in2.5 mm 0.00 in0.0 mm 0.27 in6.9 mm
08:15 PM 57.9°F14.4°C 56.8°F13.8°C 96% Calm Calm -- 29.94 in1013.9 mb 0.08 in2.0 mm 0.00 in0.0 mm 0.28 in7.1 mm
08:25 PM 57.9°F14.4°C 56.8°F13.8°C 96% Calm Calm 0.9 mph1.4 kmh 29.94 in1013.9 mb 0.07 in1.8 mm 0.00 in0.0 mm 0.29 in7.4 mm
08:35 PM 57.9°F14.4°C 56.8°F13.8°C 96% 0.9 mph SE1.4 kmh SE 2.9 mph4.7 kmh 29.93 in1013.5 mb 0.06 in1.5 mm 0.00 in0.0 mm 0.29 in7.4 mm
08:45 PM 57.9°F14.4°C 56.8°F13.8°C 96% 0.9 mph SE1.4 kmh SE 2.9 mph4.7 kmh 29.93 in1013.5 mb 0.06 in1.5 mm 0.00 in0.0 mm 0.30 in7.6 mm
08:55 PM 57.9°F14.4°C 56.8°F13.8°C 96% 0.9 mph SSE1.4 kmh SSE 5.0 mph8.0 kmh 29.93 in1013.5 mb 0.04 in1.0 mm 0.00 in0.0 mm 0.31 in7.9 mm
09:05 PM 57.9°F14.4°C 56.8°F13.8°C 96% 0.9 mph SW1.4 kmh SW 2.9 mph4.7 kmh 29.93 in1013.5 mb 0.05 in1.3 mm 0.01 in0.3 mm 0.32 in8.1 mm
09:15 PM 57.9°F14.4°C 56.8°F13.8°C 96% Calm Calm 2.0 mph3.2 kmh 29.93 in1013.5 mb 0.05 in1.3 mm 0.00 in0.0 mm 0.33 in8.4 mm
09:25 PM 58.1°F14.5°C 57.0°F13.9°C 96% 0.9 mph SSE1.4 kmh SSE 4.0 mph6.4 kmh 29.93 in1013.5 mb 0.06 in1.5 mm 0.06 in1.5 mm 0.35 in8.9 mm
09:35 PM 58.3°F14.6°C 57.2°F14.0°C 96% 0.9 mph SW1.4 kmh SW 2.9 mph4.7 kmh 29.94 in1013.9 mb 0.07 in1.8 mm 0.06 in1.5 mm 0.36 in9.1 mm
09:45 PM 58.3°F14.6°C 57.2°F14.0°C 96% Calm Calm 4.0 mph6.4 kmh 29.95 in1014.2 mb 0.07 in1.8 mm 0.00 in0.0 mm 0.38 in9.7 mm
09:55 PM 58.3°F14.6°C 57.2°F14.0°C 96% 0.9 mph SW1.4 kmh SW 4.0 mph6.4 kmh 29.95 in1014.2 mb 0.08 in2.0 mm 0.06 in1.5 mm 0.38 in9.7 mm
10:05 PM 58.3°F14.6°C 57.2°F14.0°C 96% 0.9 mph WSW1.4 kmh WSW 2.9 mph4.7 kmh 29.96 in1014.6 mb 0.09 in2.3 mm 0.01 in0.3 mm 0.41 in10.4 mm
10:15 PM 58.3°F14.6°C 57.2°F14.0°C 96% 2.0 mph S3.2 kmh S 10.1 mph16.3 kmh 29.96 in1014.6 mb 0.09 in2.3 mm 0.00 in0.0 mm 0.42 in10.7 mm
10:25 PM 57.9°F14.4°C 56.8°F13.8°C 96% 4.9 mph S7.9 kmh S 12.1 mph19.5 kmh 29.97 in1014.9 mb 0.08 in2.0 mm 0.00 in0.0 mm 0.43 in10.9 mm
10:35 PM 57.4°F14.1°C 55.9°F13.3°C 95% 4.9 mph NW7.9 kmh NW 11.0 mph17.7 kmh 29.97 in1014.9 mb 0.10 in2.5 mm 0.12 in3.0 mm 0.46 in11.7 mm
10:45 PM 57.0°F13.9°C 55.9°F13.3°C 96% 2.9 mph WSW4.7 kmh WSW 6.9 mph11.1 kmh 29.97 in1014.9 mb 0.12 in3.0 mm 0.12 in3.0 mm 0.49 in12.4 mm
10:55 PM 56.8°F13.8°C 55.8°F13.2°C 96% 2.0 mph W3.2 kmh W 6.9 mph11.1 kmh 29.97 in1014.9 mb 0.12 in3.0 mm 0.00 in0.0 mm 0.50 in12.7 mm
11:05 PM 56.7°F13.7°C 55.6°F13.1°C 96% 2.0 mph W3.2 kmh W 6.0 mph9.7 kmh 29.97 in1014.9 mb 0.10 in2.5 mm 0.00 in0.0 mm 0.51 in13.0 mm
11:15 PM 56.7°F13.7°C 55.6°F13.1°C 96% 0.9 mph W1.4 kmh W 2.9 mph4.7 kmh 29.97 in1014.9 mb 0.10 in2.5 mm 0.00 in0.0 mm 0.52 in13.2 mm
11:25 PM 56.7°F13.7°C 55.6°F13.1°C 96% Calm Calm 0.9 mph1.4 kmh 29.97 in1014.9 mb 0.10 in2.5 mm 0.00 in0.0 mm 0.53 in13.5 mm
11:35 PM 56.7°F13.7°C 55.6°F13.1°C 96% Calm Calm -- 29.98 in1015.2 mb 0.07 in1.8 mm 0.00 in0.0 mm 0.53 in13.5 mm
11:45 PM 56.7°F13.7°C 55.6°F13.1°C 96% Calm Calm -- 29.98 in1015.2 mb 0.04 in1.0 mm 0.00 in0.0 mm 0.53 in13.5 mm
11:55 PM 56.7°F13.7°C 55.6°F13.1°C 96% Calm Calm -- 29.98 in1015.2 mb 0.03 in0.8 mm 0.00 in0.0 mm 0.53 in13.5 mm